Hauptseite
METAR-TAF:

METAR-TAF

Flughäfen :

Flughafen Radom-Sadków

Radom, Polen

Breite: 51-23-21N, Länge: 21-12-49E, Höhe: 186 m

Beobachtung

Neuester Wetterbericht von vor 8 Stunden und 41 Minuten, um 14:00 UTC
Wind 3 kt aus unterschiedlichen Richtungen
Temperatur 20°C
Luftfeuchtigkeit 30%
Luftdruck 1027 hPa
Sichtweite 10 km oder mehr
keine Wolken unter 1500 m und keine Kumulonimbus oder Gewitterwolken

METAR: EPRA 081400Z VRB03KT CAVOK 20/02 Q1027 RERA

Zeit: 00:41 (22:41 UTC)

Prognose

Neuester Wetterbericht von vor 2 Stunden und 41 Minuten, um 20:00 UTC
Gültige Prognose vom 08 um 21 UTC bis 09 um 06 UTC
Wind 6 kt aus Süd
Sichtweite 10 km oder mehr
keine Wolken unter 1500 m und keine Kumulonimbus oder Gewitterwolken

TAF: EPRA 082000Z 0821/0906 17006KT CAVOK

Wetterbeobachtungen und Prognosen von mehr als 4000 Flughäfen (METAR und TAF Bericht).

Die verfügbaren Stationen werden durch gelbe und rote Markierungen auf der Karte dargestellt.

Führen Sie die Maus auf sie, um den Namen der Station zu sehen.

Darauf klicken, um die Beobachtung von Wetterbeobachtungen und Prognosen zu sehen.

Um die Karte zu ändern : klicken Sie auf den grünen Tasten mit einem schwarzen Kreuz Zum Vergrößern, auf den grünen Button mit einem Gedankenstrich zu verkleinern, oder auf die grünen Pfeile für benachbarte Karten.


METAR-TAF: